sensor_id;sensor_type;location;lat;lon;timestamp;P1;durP1;ratioP1;P2;durP2;ratioP2
70420;SDS011;57848;51.938;15.520;2024-02-15T00:01:27;22.17;;;9.45;;
70420;SDS011;57848;51.938;15.520;2024-02-15T00:03:52;20.10;;;9.90;;
70420;SDS011;57848;51.938;15.520;2024-02-15T00:06:19;22.27;;;10.20;;
70420;SDS011;57848;51.938;15.520;2024-02-15T00:08:44;22.80;;;10.20;;
70420;SDS011;57848;51.938;15.520;2024-02-15T00:11:10;21.03;;;9.70;;
70420;SDS011;57848;51.938;15.520;2024-02-15T00:13:35;20.42;;;9.70;;
70420;SDS011;57848;51.938;15.520;2024-02-15T00:16:01;17.47;;;8.97;;
70420;SDS011;57848;51.938;15.520;2024-02-15T00:18:27;18.55;;;9.57;;
70420;SDS011;57848;51.938;15.520;2024-02-15T00:20:53;23.60;;;9.83;;
70420;SDS011;57848;51.938;15.520;2024-02-15T00:23:18;19.00;;;8.40;;
70420;SDS011;57848;51.938;15.520;2024-02-15T00:25:43;19.87;;;8.73;;
70420;SDS011;57848;51.938;15.520;2024-02-15T00:28:10;22.17;;;9.67;;
70420;SDS011;57848;51.938;15.520;2024-02-15T00:30:36;20.38;;;8.38;;
70420;SDS011;57848;51.938;15.520;2024-02-15T00:33:02;21.77;;;8.83;;
70420;SDS011;57848;51.938;15.520;2024-02-15T00:35:28;20.30;;;8.63;;
70420;SDS011;57848;51.938;15.520;2024-02-15T00:37:53;19.10;;;8.27;;
70420;SDS011;57848;51.938;15.520;2024-02-15T00:40:19;18.77;;;8.37;;
70420;SDS011;57848;51.938;15.520;2024-02-15T00:42:46;16.38;;;8.75;;
70420;SDS011;57848;51.938;15.520;2024-02-15T00:45:11;18.70;;;9.17;;
70420;SDS011;57848;51.938;15.520;2024-02-15T00:47:37;18.17;;;7.47;;
70420;SDS011;57848;51.938;15.520;2024-02-15T00:50:07;19.95;;;8.20;;
70420;SDS011;57848;51.938;15.520;2024-02-15T00:52:34;19.67;;;7.63;;
70420;SDS011;57848;51.938;15.520;2024-02-15T00:55:00;23.57;;;7.73;;
70420;SDS011;57848;51.938;15.520;2024-02-15T00:57:25;18.97;;;7.87;;
70420;SDS011;57848;51.938;15.520;2024-02-15T00:59:50;15.90;;;6.82;;
70420;SDS011;57848;51.938;15.520;2024-02-15T01:02:17;17.73;;;6.83;;
70420;SDS011;57848;51.938;15.520;2024-02-15T01:04:43;18.05;;;7.57;;
70420;SDS011;57848;51.938;15.520;2024-02-15T01:07:10;16.20;;;7.00;;
70420;SDS011;57848;51.938;15.520;2024-02-15T01:09:36;17.00;;;7.83;;
70420;SDS011;57848;51.938;15.520;2024-02-15T01:12:01;20.83;;;8.77;;
70420;SDS011;57848;51.938;15.520;2024-02-15T01:14:29;21.27;;;8.40;;
70420;SDS011;57848;51.938;15.520;2024-02-15T01:16:55;15.90;;;7.18;;
70420;SDS011;57848;51.938;15.520;2024-02-15T01:19:21;16.77;;;7.22;;
70420;SDS011;57848;51.938;15.520;2024-02-15T01:21:47;20.97;;;8.23;;
70420;SDS011;57848;51.938;15.520;2024-02-15T01:24:12;18.90;;;7.50;;
70420;SDS011;57848;51.938;15.520;2024-02-15T01:26:38;17.43;;;8.17;;
70420;SDS011;57848;51.938;15.520;2024-02-15T01:29:03;18.93;;;8.13;;
70420;SDS011;57848;51.938;15.520;2024-02-15T01:31:29;16.17;;;7.57;;
70420;SDS011;57848;51.938;15.520;2024-02-15T01:33:54;19.60;;;8.93;;
70420;SDS011;57848;51.938;15.520;2024-02-15T01:36:20;20.10;;;8.17;;
70420;SDS011;57848;51.938;15.520;2024-02-15T01:38:45;22.10;;;8.20;;
70420;SDS011;57848;51.938;15.520;2024-02-15T01:41:11;20.97;;;8.93;;
70420;SDS011;57848;51.938;15.520;2024-02-15T01:43:37;24.50;;;8.55;;
70420;SDS011;57848;51.938;15.520;2024-02-15T01:46:04;20.60;;;8.18;;
70420;SDS011;57848;51.938;15.520;2024-02-15T01:48:34;20.90;;;8.37;;
70420;SDS011;57848;51.938;15.520;2024-02-15T01:51:01;26.73;;;7.75;;
70420;SDS011;57848;51.938;15.520;2024-02-15T01:53:26;18.93;;;8.17;;
70420;SDS011;57848;51.938;15.520;2024-02-15T01:55:52;19.15;;;8.23;;
70420;SDS011;57848;51.938;15.520;2024-02-15T01:58:20;21.70;;;8.07;;
70420;SDS011;57848;51.938;15.520;2024-02-15T02:00:47;23.40;;;8.10;;
70420;SDS011;57848;51.938;15.520;2024-02-15T02:03:14;20.95;;;8.32;;
70420;SDS011;57848;51.938;15.520;2024-02-15T02:05:40;19.17;;;7.63;;
70420;SDS011;57848;51.938;15.520;2024-02-15T02:08:08;23.13;;;8.02;;
70420;SDS011;57848;51.938;15.520;2024-02-15T02:10:37;21.40;;;9.45;;
70420;SDS011;57848;51.938;15.520;2024-02-15T02:13:03;19.92;;;8.63;;
70420;SDS011;57848;51.938;15.520;2024-02-15T02:15:28;19.60;;;8.07;;
70420;SDS011;57848;51.938;15.520;2024-02-15T02:17:57;20.80;;;8.30;;
70420;SDS011;57848;51.938;15.520;2024-02-15T02:20:24;16.88;;;6.90;;
70420;SDS011;57848;51.938;15.520;2024-02-15T02:22:50;15.50;;;7.10;;
70420;SDS011;57848;51.938;15.520;2024-02-15T02:25:22;15.23;;;7.00;;
70420;SDS011;57848;51.938;15.520;2024-02-15T02:27:51;19.58;;;7.82;;
70420;SDS011;57848;51.938;15.520;2024-02-15T02:30:17;14.05;;;6.75;;
70420;SDS011;57848;51.938;15.520;2024-02-15T02:32:44;17.58;;;7.20;;
70420;SDS011;57848;51.938;15.520;2024-02-15T02:35:11;18.13;;;6.50;;
70420;SDS011;57848;51.938;15.520;2024-02-15T02:37:40;17.50;;;7.18;;
70420;SDS011;57848;51.938;15.520;2024-02-15T02:40:06;18.38;;;7.57;;
70420;SDS011;57848;51.938;15.520;2024-02-15T02:45:32;19.85;;;7.40;;
70420;SDS011;57848;51.938;15.520;2024-02-15T02:47:57;16.83;;;7.57;;
70420;SDS011;57848;51.938;15.520;2024-02-15T02:50:23;14.00;;;6.40;;
70420;SDS011;57848;51.938;15.520;2024-02-15T02:52:49;15.73;;;6.85;;
70420;SDS011;57848;51.938;15.520;2024-02-15T02:55:15;16.38;;;6.78;;
70420;SDS011;57848;51.938;15.520;2024-02-15T02:57:41;16.47;;;6.70;;
70420;SDS011;57848;51.938;15.520;2024-02-15T03:02:37;15.23;;;6.55;;
70420;SDS011;57848;51.938;15.520;2024-02-15T03:05:09;17.17;;;7.03;;
70420;SDS011;57848;51.938;15.520;2024-02-15T03:07:36;15.30;;;6.82;;
70420;SDS011;57848;51.938;15.520;2024-02-15T03:10:02;13.03;;;6.13;;
70420;SDS011;57848;51.938;15.520;2024-02-15T03:12:33;12.57;;;6.25;;
70420;SDS011;57848;51.938;15.520;2024-02-15T03:15:06;12.70;;;6.45;;
70420;SDS011;57848;51.938;15.520;2024-02-15T03:17:39;12.77;;;6.68;;
70420;SDS011;57848;51.938;15.520;2024-02-15T03:20:08;15.10;;;6.60;;
70420;SDS011;57848;51.938;15.520;2024-02-15T03:22:52;13.13;;;6.50;;
70420;SDS011;57848;51.938;15.520;2024-02-15T03:25:19;14.18;;;6.88;;
70420;SDS011;57848;51.938;15.520;2024-02-15T03:27:44;14.47;;;6.77;;
70420;SDS011;57848;51.938;15.520;2024-02-15T03:30:10;16.27;;;6.53;;
70420;SDS011;57848;51.938;15.520;2024-02-15T03:32:35;18.30;;;6.97;;
70420;SDS011;57848;51.938;15.520;2024-02-15T03:35:02;11.55;;;6.35;;
70420;SDS011;57848;51.938;15.520;2024-02-15T03:37:27;14.63;;;7.03;;
70420;SDS011;57848;51.938;15.520;2024-02-15T03:39:54;15.13;;;7.30;;
70420;SDS011;57848;51.938;15.520;2024-02-15T03:42:20;14.50;;;6.55;;
70420;SDS011;57848;51.938;15.520;2024-02-15T03:44:45;11.93;;;6.18;;
70420;SDS011;57848;51.938;15.520;2024-02-15T03:47:13;12.80;;;6.57;;
70420;SDS011;57848;51.938;15.520;2024-02-15T03:49:40;12.20;;;5.40;;
70420;SDS011;57848;51.938;15.520;2024-02-15T03:52:07;13.90;;;5.90;;
70420;SDS011;57848;51.938;15.520;2024-02-15T03:54:35;13.38;;;5.38;;
70420;SDS011;57848;51.938;15.520;2024-02-15T03:57:01;12.57;;;5.57;;
70420;SDS011;57848;51.938;15.520;2024-02-15T03:59:26;12.00;;;6.13;;
70420;SDS011;57848;51.938;15.520;2024-02-15T04:01:55;13.23;;;6.20;;
70420;SDS011;57848;51.938;15.520;2024-02-15T04:04:22;14.07;;;5.13;;
70420;SDS011;57848;51.938;15.520;2024-02-15T04:06:50;12.82;;;5.68;;
70420;SDS011;57848;51.938;15.520;2024-02-15T04:09:17;13.47;;;5.40;;
70420;SDS011;57848;51.938;15.520;2024-02-15T04:11:46;11.73;;;5.45;;
70420;SDS011;57848;51.938;15.520;2024-02-15T04:14:15;12.93;;;5.80;;
70420;SDS011;57848;51.938;15.520;2024-02-15T04:16:43;10.93;;;5.22;;
70420;SDS011;57848;51.938;15.520;2024-02-15T04:19:09;9.80;;;5.20;;
70420;SDS011;57848;51.938;15.520;2024-02-15T04:21:35;11.27;;;5.65;;
70420;SDS011;57848;51.938;15.520;2024-02-15T04:24:01;13.30;;;5.00;;
70420;SDS011;57848;51.938;15.520;2024-02-15T04:26:26;11.70;;;5.20;;
70420;SDS011;57848;51.938;15.520;2024-02-15T04:28:55;10.17;;;5.00;;
70420;SDS011;57848;51.938;15.520;2024-02-15T04:31:20;9.73;;;4.78;;
70420;SDS011;57848;51.938;15.520;2024-02-15T04:33:51;10.02;;;5.22;;
70420;SDS011;57848;51.938;15.520;2024-02-15T04:36:17;14.17;;;4.50;;
70420;SDS011;57848;51.938;15.520;2024-02-15T04:38:48;11.35;;;5.20;;
70420;SDS011;57848;51.938;15.520;2024-02-15T04:41:15;9.55;;;4.78;;
70420;SDS011;57848;51.938;15.520;2024-02-15T04:43:46;10.35;;;4.47;;
70420;SDS011;57848;51.938;15.520;2024-02-15T04:46:11;9.57;;;4.40;;
70420;SDS011;57848;51.938;15.520;2024-02-15T04:48:38;10.27;;;4.60;;
70420;SDS011;57848;51.938;15.520;2024-02-15T04:51:04;9.43;;;4.55;;
70420;SDS011;57848;51.938;15.520;2024-02-15T04:53:29;12.40;;;5.87;;
70420;SDS011;57848;51.938;15.520;2024-02-15T04:55:54;10.47;;;5.20;;
70420;SDS011;57848;51.938;15.520;2024-02-15T04:58:20;10.98;;;5.85;;
70420;SDS011;57848;51.938;15.520;2024-02-15T05:00:45;12.40;;;6.27;;
70420;SDS011;57848;51.938;15.520;2024-02-15T05:03:12;12.77;;;6.00;;
70420;SDS011;57848;51.938;15.520;2024-02-15T05:05:37;12.73;;;5.93;;
70420;SDS011;57848;51.938;15.520;2024-02-15T05:08:04;10.15;;;5.90;;
70420;SDS011;57848;51.938;15.520;2024-02-15T05:10:29;12.30;;;5.80;;
70420;SDS011;57848;51.938;15.520;2024-02-15T05:12:55;12.40;;;5.93;;
70420;SDS011;57848;51.938;15.520;2024-02-15T05:15:21;15.75;;;7.82;;
70420;SDS011;57848;51.938;15.520;2024-02-15T05:17:50;18.27;;;9.07;;
70420;SDS011;57848;51.938;15.520;2024-02-15T05:20:15;22.27;;;11.17;;
70420;SDS011;57848;51.938;15.520;2024-02-15T05:22:41;25.63;;;11.60;;
70420;SDS011;57848;51.938;15.520;2024-02-15T05:25:12;18.57;;;9.70;;
70420;SDS011;57848;51.938;15.520;2024-02-15T05:27:38;18.40;;;9.13;;
70420;SDS011;57848;51.938;15.520;2024-02-15T05:30:03;17.02;;;8.98;;
70420;SDS011;57848;51.938;15.520;2024-02-15T05:32:33;17.73;;;8.23;;
70420;SDS011;57848;51.938;15.520;2024-02-15T05:35:06;14.55;;;7.85;;
70420;SDS011;57848;51.938;15.520;2024-02-15T05:37:38;17.35;;;8.63;;
70420;SDS011;57848;51.938;15.520;2024-02-15T05:40:04;16.40;;;9.45;;
70420;SDS011;57848;51.938;15.520;2024-02-15T05:42:30;19.73;;;10.03;;
70420;SDS011;57848;51.938;15.520;2024-02-15T05:44:56;17.67;;;9.18;;
70420;SDS011;57848;51.938;15.520;2024-02-15T05:47:40;14.88;;;8.60;;
70420;SDS011;57848;51.938;15.520;2024-02-15T05:50:05;15.97;;;9.17;;
70420;SDS011;57848;51.938;15.520;2024-02-15T05:52:32;17.60;;;9.10;;
70420;SDS011;57848;51.938;15.520;2024-02-15T05:54:57;17.90;;;9.23;;
70420;SDS011;57848;51.938;15.520;2024-02-15T05:57:22;28.80;;;11.10;;
70420;SDS011;57848;51.938;15.520;2024-02-15T05:59:48;24.90;;;11.03;;
70420;SDS011;57848;51.938;15.520;2024-02-15T06:02:14;27.98;;;11.93;;
70420;SDS011;57848;51.938;15.520;2024-02-15T06:04:40;22.98;;;10.98;;
70420;SDS011;57848;51.938;15.520;2024-02-15T06:07:06;21.40;;;11.20;;
70420;SDS011;57848;51.938;15.520;2024-02-15T06:09:34;25.25;;;12.30;;
70420;SDS011;57848;51.938;15.520;2024-02-15T06:12:02;22.52;;;13.02;;
70420;SDS011;57848;51.938;15.520;2024-02-15T06:14:27;22.57;;;12.20;;
70420;SDS011;57848;51.938;15.520;2024-02-15T06:16:53;21.95;;;12.00;;
70420;SDS011;57848;51.938;15.520;2024-02-15T06:19:20;21.37;;;11.17;;
70420;SDS011;57848;51.938;15.520;2024-02-15T06:21:45;22.30;;;10.88;;
70420;SDS011;57848;51.938;15.520;2024-02-15T06:24:11;23.97;;;11.07;;
70420;SDS011;57848;51.938;15.520;2024-02-15T06:26:37;19.02;;;10.85;;
70420;SDS011;57848;51.938;15.520;2024-02-15T06:29:04;19.48;;;10.25;;
70420;SDS011;57848;51.938;15.520;2024-02-15T06:31:47;21.30;;;11.10;;
70420;SDS011;57848;51.938;15.520;2024-02-15T06:34:31;27.38;;;10.88;;
70420;SDS011;57848;51.938;15.520;2024-02-15T06:37:34;25.58;;;12.63;;
70420;SDS011;57848;51.938;15.520;2024-02-15T06:40:19;26.42;;;13.13;;
70420;SDS011;57848;51.938;15.520;2024-02-15T06:42:45;24.00;;;12.53;;
70420;SDS011;57848;51.938;15.520;2024-02-15T06:45:10;26.10;;;12.27;;
70420;SDS011;57848;51.938;15.520;2024-02-15T06:47:41;24.20;;;12.25;;
70420;SDS011;57848;51.938;15.520;2024-02-15T06:50:09;31.40;;;12.87;;
70420;SDS011;57848;51.938;15.520;2024-02-15T06:52:38;26.58;;;13.35;;
70420;SDS011;57848;51.938;15.520;2024-02-15T06:55:06;29.02;;;12.73;;
70420;SDS011;57848;51.938;15.520;2024-02-15T06:57:33;23.70;;;12.75;;
70420;SDS011;57848;51.938;15.520;2024-02-15T07:00:01;26.80;;;12.48;;
70420;SDS011;57848;51.938;15.520;2024-02-15T07:02:34;28.03;;;14.23;;
70420;SDS011;57848;51.938;15.520;2024-02-15T07:04:59;29.00;;;12.40;;
70420;SDS011;57848;51.938;15.520;2024-02-15T07:07:25;23.73;;;12.00;;
70420;SDS011;57848;51.938;15.520;2024-02-15T07:09:51;27.73;;;13.33;;
70420;SDS011;57848;51.938;15.520;2024-02-15T07:12:16;25.10;;;13.57;;
70420;SDS011;57848;51.938;15.520;2024-02-15T07:14:44;27.95;;;11.77;;
70420;SDS011;57848;51.938;15.520;2024-02-15T07:17:11;23.87;;;12.73;;
70420;SDS011;57848;51.938;15.520;2024-02-15T07:19:37;27.45;;;12.65;;
70420;SDS011;57848;51.938;15.520;2024-02-15T07:22:03;23.20;;;12.40;;
70420;SDS011;57848;51.938;15.520;2024-02-15T07:24:29;25.15;;;11.88;;
70420;SDS011;57848;51.938;15.520;2024-02-15T07:26:54;29.57;;;11.57;;
70420;SDS011;57848;51.938;15.520;2024-02-15T07:29:22;23.92;;;12.25;;
70420;SDS011;57848;51.938;15.520;2024-02-15T07:31:49;29.08;;;12.90;;
70420;SDS011;57848;51.938;15.520;2024-02-15T07:34:14;23.53;;;13.20;;
70420;SDS011;57848;51.938;15.520;2024-02-15T07:36:41;24.08;;;12.75;;
70420;SDS011;57848;51.938;15.520;2024-02-15T07:39:08;24.17;;;12.40;;
70420;SDS011;57848;51.938;15.520;2024-02-15T07:41:37;22.17;;;12.32;;
70420;SDS011;57848;51.938;15.520;2024-02-15T07:44:03;28.57;;;12.33;;
70420;SDS011;57848;51.938;15.520;2024-02-15T07:46:29;24.70;;;12.82;;
70420;SDS011;57848;51.938;15.520;2024-02-15T07:48:54;30.67;;;13.23;;
70420;SDS011;57848;51.938;15.520;2024-02-15T07:51:21;25.43;;;12.97;;
70420;SDS011;57848;51.938;15.520;2024-02-15T07:53:47;24.48;;;12.20;;
70420;SDS011;57848;51.938;15.520;2024-02-15T07:56:13;24.52;;;11.77;;
70420;SDS011;57848;51.938;15.520;2024-02-15T07:58:41;21.60;;;12.13;;
70420;SDS011;57848;51.938;15.520;2024-02-15T08:01:07;22.88;;;13.32;;
70420;SDS011;57848;51.938;15.520;2024-02-15T08:03:34;24.27;;;12.17;;
70420;SDS011;57848;51.938;15.520;2024-02-15T08:06:00;24.77;;;12.00;;
70420;SDS011;57848;51.938;15.520;2024-02-15T08:08:31;23.70;;;13.25;;
70420;SDS011;57848;51.938;15.520;2024-02-15T08:10:56;25.47;;;13.37;;
70420;SDS011;57848;51.938;15.520;2024-02-15T08:13:22;25.23;;;13.73;;
70420;SDS011;57848;51.938;15.520;2024-02-15T08:15:53;23.83;;;13.63;;
70420;SDS011;57848;51.938;15.520;2024-02-15T08:18:18;25.00;;;13.60;;
70420;SDS011;57848;51.938;15.520;2024-02-15T08:20:45;25.57;;;13.70;;
70420;SDS011;57848;51.938;15.520;2024-02-15T08:23:10;24.65;;;12.75;;
70420;SDS011;57848;51.938;15.520;2024-02-15T08:25:38;22.27;;;12.87;;
70420;SDS011;57848;51.938;15.520;2024-02-15T08:28:05;23.85;;;13.15;;
70420;SDS011;57848;51.938;15.520;2024-02-15T08:30:32;21.48;;;12.30;;
70420;SDS011;57848;51.938;15.520;2024-02-15T08:32:58;21.97;;;11.63;;
70420;SDS011;57848;51.938;15.520;2024-02-15T08:35:23;22.17;;;12.10;;
70420;SDS011;57848;51.938;15.520;2024-02-15T08:37:49;28.27;;;12.85;;
70420;SDS011;57848;51.938;15.520;2024-02-15T08:40:16;22.33;;;11.50;;
70420;SDS011;57848;51.938;15.520;2024-02-15T08:42:44;20.05;;;10.88;;
70420;SDS011;57848;51.938;15.520;2024-02-15T08:45:11;21.13;;;10.93;;
70420;SDS011;57848;51.938;15.520;2024-02-15T08:47:40;21.80;;;11.70;;
70420;SDS011;57848;51.938;15.520;2024-02-15T08:50:07;25.48;;;13.07;;
70420;SDS011;57848;51.938;15.520;2024-02-15T08:52:37;20.07;;;10.57;;
70420;SDS011;57848;51.938;15.520;2024-02-15T08:55:06;18.52;;;10.82;;
70420;SDS011;57848;51.938;15.520;2024-02-15T08:57:34;18.55;;;9.68;;
70420;SDS011;57848;51.938;15.520;2024-02-15T09:00:01;20.50;;;10.35;;
70420;SDS011;57848;51.938;15.520;2024-02-15T09:02:30;19.33;;;9.83;;
70420;SDS011;57848;51.938;15.520;2024-02-15T09:04:58;17.33;;;9.18;;
70420;SDS011;57848;51.938;15.520;2024-02-15T09:07:24;17.60;;;9.65;;
70420;SDS011;57848;51.938;15.520;2024-02-15T09:09:49;16.47;;;9.67;;
70420;SDS011;57848;51.938;15.520;2024-02-15T09:12:15;18.83;;;10.77;;
70420;SDS011;57848;51.938;15.520;2024-02-15T09:14:40;18.98;;;9.60;;
70420;SDS011;57848;51.938;15.520;2024-02-15T09:17:05;20.63;;;10.67;;
70420;SDS011;57848;51.938;15.520;2024-02-15T09:19:35;18.50;;;9.98;;
70420;SDS011;57848;51.938;15.520;2024-02-15T09:22:01;17.77;;;9.77;;
70420;SDS011;57848;51.938;15.520;2024-02-15T09:24:29;18.50;;;9.70;;
70420;SDS011;57848;51.938;15.520;2024-02-15T09:26:55;20.10;;;10.40;;
70420;SDS011;57848;51.938;15.520;2024-02-15T09:29:21;17.27;;;9.23;;
70420;SDS011;57848;51.938;15.520;2024-02-15T09:31:49;18.33;;;10.73;;
70420;SDS011;57848;51.938;15.520;2024-02-15T09:34:15;20.13;;;9.23;;
70420;SDS011;57848;51.938;15.520;2024-02-15T09:36:40;16.17;;;9.20;;
70420;SDS011;57848;51.938;15.520;2024-02-15T09:39:05;14.73;;;7.87;;
70420;SDS011;57848;51.938;15.520;2024-02-15T09:41:31;14.07;;;7.80;;
70420;SDS011;57848;51.938;15.520;2024-02-15T09:43:59;13.73;;;7.78;;
70420;SDS011;57848;51.938;15.520;2024-02-15T09:46:24;14.00;;;8.45;;
70420;SDS011;57848;51.938;15.520;2024-02-15T09:48:51;16.25;;;7.97;;
70420;SDS011;57848;51.938;15.520;2024-02-15T09:51:23;15.17;;;8.50;;
70420;SDS011;57848;51.938;15.520;2024-02-15T09:53:51;15.60;;;8.77;;
70420;SDS011;57848;51.938;15.520;2024-02-15T09:56:17;15.70;;;9.13;;
70420;SDS011;57848;51.938;15.520;2024-02-15T09:58:43;14.52;;;8.63;;
70420;SDS011;57848;51.938;15.520;2024-02-15T10:01:09;14.97;;;9.73;;
70420;SDS011;57848;51.938;15.520;2024-02-15T10:03:38;15.25;;;8.80;;
70420;SDS011;57848;51.938;15.520;2024-02-15T10:06:05;14.25;;;8.50;;
70420;SDS011;57848;51.938;15.520;2024-02-15T10:08:31;13.00;;;7.37;;
70420;SDS011;57848;51.938;15.520;2024-02-15T10:11:08;9.57;;;5.30;;
70420;SDS011;57848;51.938;15.520;2024-02-15T10:13:35;10.60;;;6.13;;
70420;SDS011;57848;51.938;15.520;2024-02-15T10:16:14;12.10;;;6.47;;
70420;SDS011;57848;51.938;15.520;2024-02-15T10:18:40;11.80;;;6.13;;
70420;SDS011;57848;51.938;15.520;2024-02-15T10:21:05;13.67;;;6.47;;
70420;SDS011;57848;51.938;15.520;2024-02-15T10:23:31;11.87;;;6.90;;
70420;SDS011;57848;51.938;15.520;2024-02-15T10:25:56;11.60;;;6.60;;
70420;SDS011;57848;51.938;15.520;2024-02-15T10:28:23;12.93;;;6.37;;
70420;SDS011;57848;51.938;15.520;2024-02-15T10:30:49;11.88;;;6.57;;
70420;SDS011;57848;51.938;15.520;2024-02-15T10:33:27;10.50;;;5.53;;
70420;SDS011;57848;51.938;15.520;2024-02-15T10:36:09;11.90;;;6.43;;
70420;SDS011;57848;51.938;15.520;2024-02-15T10:38:38;11.98;;;6.43;;
70420;SDS011;57848;51.938;15.520;2024-02-15T10:41:04;12.57;;;6.80;;
70420;SDS011;57848;51.938;15.520;2024-02-15T10:43:30;12.02;;;6.88;;
70420;SDS011;57848;51.938;15.520;2024-02-15T10:45:57;12.93;;;6.23;;
70420;SDS011;57848;51.938;15.520;2024-02-15T10:48:23;11.68;;;6.10;;
70420;SDS011;57848;51.938;15.520;2024-02-15T10:50:49;10.63;;;6.57;;
70420;SDS011;57848;51.938;15.520;2024-02-15T10:56:11;10.75;;;6.35;;
70420;SDS011;57848;51.938;15.520;2024-02-15T10:58:40;12.43;;;6.07;;
70420;SDS011;57848;51.938;15.520;2024-02-15T11:01:12;10.35;;;5.18;;
70420;SDS011;57848;51.938;15.520;2024-02-15T11:03:52;10.65;;;5.95;;
70420;SDS011;57848;51.938;15.520;2024-02-15T11:06:25;12.75;;;6.47;;
70420;SDS011;57848;51.938;15.520;2024-02-15T11:08:52;11.05;;;6.05;;
70420;SDS011;57848;51.938;15.520;2024-02-15T11:11:18;10.07;;;5.83;;
70420;SDS011;57848;51.938;15.520;2024-02-15T11:13:45;12.52;;;6.15;;
70420;SDS011;57848;51.938;15.520;2024-02-15T11:16:38;11.63;;;5.97;;
70420;SDS011;57848;51.938;15.520;2024-02-15T11:19:10;10.57;;;5.68;;
70420;SDS011;57848;51.938;15.520;2024-02-15T11:22:07;12.38;;;6.07;;
70420;SDS011;57848;51.938;15.520;2024-02-15T11:24:35;14.77;;;6.07;;
70420;SDS011;57848;51.938;15.520;2024-02-15T11:27:05;13.82;;;6.50;;
70420;SDS011;57848;51.938;15.520;2024-02-15T11:29:47;13.15;;;6.78;;
70420;SDS011;57848;51.938;15.520;2024-02-15T11:40:20;12.75;;;7.15;;
70420;SDS011;57848;51.938;15.520;2024-02-15T11:43:08;12.85;;;6.55;;
70420;SDS011;57848;51.938;15.520;2024-02-15T11:45:36;12.07;;;6.38;;
70420;SDS011;57848;51.938;15.520;2024-02-15T11:48:09;15.77;;;6.90;;
70420;SDS011;57848;51.938;15.520;2024-02-15T11:50:36;13.37;;;6.97;;
70420;SDS011;57848;51.938;15.520;2024-02-15T11:53:03;14.50;;;7.80;;
70420;SDS011;57848;51.938;15.520;2024-02-15T11:55:39;15.48;;;8.23;;
70420;SDS011;57848;51.938;15.520;2024-02-15T11:58:05;14.75;;;7.68;;
70420;SDS011;57848;51.938;15.520;2024-02-15T12:00:34;14.60;;;7.75;;
70420;SDS011;57848;51.938;15.520;2024-02-15T12:03:19;12.20;;;6.60;;
70420;SDS011;57848;51.938;15.520;2024-02-15T12:06:03;12.65;;;7.32;;
70420;SDS011;57848;51.938;15.520;2024-02-15T12:08:48;12.73;;;7.30;;
70420;SDS011;57848;51.938;15.520;2024-02-15T12:11:33;14.07;;;7.00;;
70420;SDS011;57848;51.938;15.520;2024-02-15T12:14:18;12.15;;;6.80;;
70420;SDS011;57848;51.938;15.520;2024-02-15T12:17:03;13.77;;;7.20;;
70420;SDS011;57848;51.938;15.520;2024-02-15T12:19:49;13.07;;;7.05;;
70420;SDS011;57848;51.938;15.520;2024-02-15T12:22:21;15.18;;;7.22;;
70420;SDS011;57848;51.938;15.520;2024-02-15T12:24:57;13.07;;;7.35;;
70420;SDS011;57848;51.938;15.520;2024-02-15T12:27:25;14.27;;;7.45;;
70420;SDS011;57848;51.938;15.520;2024-02-15T12:29:53;14.10;;;6.90;;
70420;SDS011;57848;51.938;15.520;2024-02-15T12:32:22;15.40;;;7.75;;
70420;SDS011;57848;51.938;15.520;2024-02-15T12:34:49;14.60;;;8.70;;
70420;SDS011;57848;51.938;15.520;2024-02-15T12:37:22;15.40;;;7.75;;
70420;SDS011;57848;51.938;15.520;2024-02-15T12:39:49;15.68;;;8.27;;
70420;SDS011;57848;51.938;15.520;2024-02-15T12:42:15;14.10;;;8.50;;
70420;SDS011;57848;51.938;15.520;2024-02-15T12:44:45;12.80;;;7.78;;
70420;SDS011;57848;51.938;15.520;2024-02-15T12:47:21;13.80;;;7.75;;
70420;SDS011;57848;51.938;15.520;2024-02-15T12:49:50;12.40;;;6.93;;
70420;SDS011;57848;51.938;15.520;2024-02-15T12:52:32;13.20;;;6.93;;
70420;SDS011;57848;51.938;15.520;2024-02-15T12:55:08;13.80;;;6.90;;
70420;SDS011;57848;51.938;15.520;2024-02-15T12:57:35;17.33;;;7.90;;
70420;SDS011;57848;51.938;15.520;2024-02-15T13:00:01;16.92;;;8.88;;
70420;SDS011;57848;51.938;15.520;2024-02-15T13:02:36;20.25;;;9.68;;
70420;SDS011;57848;51.938;15.520;2024-02-15T13:05:04;21.57;;;11.70;;
70420;SDS011;57848;51.938;15.520;2024-02-15T13:07:33;18.33;;;9.52;;
70420;SDS011;57848;51.938;15.520;2024-02-15T13:09:59;18.00;;;9.77;;
70420;SDS011;57848;51.938;15.520;2024-02-15T13:12:25;18.63;;;10.80;;
70420;SDS011;57848;51.938;15.520;2024-02-15T13:14:50;13.17;;;7.47;;
70420;SDS011;57848;51.938;15.520;2024-02-15T13:17:15;14.70;;;7.50;;
70420;SDS011;57848;51.938;15.520;2024-02-15T13:19:48;14.37;;;7.67;;
70420;SDS011;57848;51.938;15.520;2024-02-15T13:22:17;12.77;;;7.03;;
70420;SDS011;57848;51.938;15.520;2024-02-15T13:24:43;14.07;;;6.88;;
70420;SDS011;57848;51.938;15.520;2024-02-15T13:27:09;19.23;;;8.05;;
70420;SDS011;57848;51.938;15.520;2024-02-15T13:29:38;14.65;;;7.13;;
70420;SDS011;57848;51.938;15.520;2024-02-15T13:32:05;12.87;;;6.97;;
70420;SDS011;57848;51.938;15.520;2024-02-15T13:34:31;14.70;;;6.30;;
70420;SDS011;57848;51.938;15.520;2024-02-15T13:36:58;14.43;;;7.40;;
70420;SDS011;57848;51.938;15.520;2024-02-15T13:39:26;14.32;;;7.40;;
70420;SDS011;57848;51.938;15.520;2024-02-15T13:41:58;13.77;;;7.75;;
70420;SDS011;57848;51.938;15.520;2024-02-15T13:44:26;15.23;;;7.93;;
70420;SDS011;57848;51.938;15.520;2024-02-15T13:46:52;15.10;;;8.20;;
70420;SDS011;57848;51.938;15.520;2024-02-15T13:49:20;13.90;;;7.30;;
70420;SDS011;57848;51.938;15.520;2024-02-15T13:51:46;13.98;;;7.40;;
70420;SDS011;57848;51.938;15.520;2024-02-15T13:54:12;13.57;;;6.67;;
70420;SDS011;57848;51.938;15.520;2024-02-15T13:56:37;13.10;;;6.83;;
70420;SDS011;57848;51.938;15.520;2024-02-15T13:59:04;12.73;;;6.20;;
70420;SDS011;57848;51.938;15.520;2024-02-15T14:01:30;13.90;;;6.65;;
70420;SDS011;57848;51.938;15.520;2024-02-15T14:03:56;13.70;;;6.27;;
70420;SDS011;57848;51.938;15.520;2024-02-15T14:06:21;12.93;;;6.83;;
70420;SDS011;57848;51.938;15.520;2024-02-15T14:08:47;12.67;;;6.70;;
70420;SDS011;57848;51.938;15.520;2024-02-15T14:11:12;12.80;;;7.20;;
70420;SDS011;57848;51.938;15.520;2024-02-15T14:13:37;12.43;;;6.33;;
70420;SDS011;57848;51.938;15.520;2024-02-15T14:16:03;15.23;;;7.13;;
70420;SDS011;57848;51.938;15.520;2024-02-15T14:18:30;13.63;;;6.57;;
70420;SDS011;57848;51.938;15.520;2024-02-15T14:20:56;11.88;;;6.38;;
70420;SDS011;57848;51.938;15.520;2024-02-15T14:23:21;14.27;;;6.73;;
70420;SDS011;57848;51.938;15.520;2024-02-15T14:25:47;18.37;;;7.40;;
70420;SDS011;57848;51.938;15.520;2024-02-15T14:28:15;17.23;;;8.20;;
70420;SDS011;57848;51.938;15.520;2024-02-15T14:30:40;21.33;;;9.33;;
70420;SDS011;57848;51.938;15.520;2024-02-15T14:33:24;16.20;;;7.95;;
70420;SDS011;57848;51.938;15.520;2024-02-15T14:35:51;17.75;;;8.90;;
70420;SDS011;57848;51.938;15.520;2024-02-15T14:38:18;16.73;;;9.52;;
70420;SDS011;57848;51.938;15.520;2024-02-15T14:40:46;31.87;;;16.87;;